Alief, Texas
Current Conditions -  °F | °C
As of 11:53 PM on Sunday 23 Nov 2014 (Local Time) from KSGR Reporting Station
Clear Clear  
Wind Chill: 18°   Ceiling: Unl
Heat Index: 18°   Visibility: 10mi
Dew Point: 14°   Wind: 12mph
Humidity: 80%   Direction: 290°WNW
Pressure: 29.74"   Gusts: NA
Location:  29.71°N, 95.6°W
Report Text: KSGR 240553Z AUTO 29010KT 10SM CLR 18/14 A2974 RMK AO2 SLP073 T01780144 10217 20178 402720150 53028
Loading
Personal Weather Stations






























Interactive Weather Map New forecast layout! Learn more

10-Day Weather Forecast

Advertisements
Track Severe Weather on mobile